sensor_id;sensor_type;location;lat;lon;timestamp;pressure;altitude;pressure_sealevel;temperature;humidity
77003;BME280;65939;50.060;14.288;2023-07-31T00:00:06;97132.63;;;15.16;88.16
77003;BME280;65939;50.060;14.288;2023-07-31T00:02:06;97138.25;;;15.13;87.55
77003;BME280;65939;50.060;14.288;2023-07-31T00:04:07;97137.59;;;15.11;88.14
77003;BME280;65939;50.060;14.288;2023-07-31T00:06:08;97129.94;;;15.09;87.83
77003;BME280;65939;50.060;14.288;2023-07-31T00:08:09;97133.56;;;15.08;87.95
77003;BME280;65939;50.060;14.288;2023-07-31T00:10:10;97132.94;;;15.06;88.07
77003;BME280;65939;50.060;14.288;2023-07-31T00:12:10;97134.53;;;15.07;87.98
77003;BME280;65939;50.060;14.288;2023-07-31T00:14:11;97133.72;;;15.07;87.34
77003;BME280;65939;50.060;14.288;2023-07-31T00:16:12;97136.38;;;15.07;87.33
77003;BME280;65939;50.060;14.288;2023-07-31T00:18:12;97133.13;;;15.05;87.64
77003;BME280;65939;50.060;14.288;2023-07-31T00:20:13;97134.09;;;15.04;87.58
77003;BME280;65939;50.060;14.288;2023-07-31T00:22:14;97136.72;;;15.04;87.99
77003;BME280;65939;50.060;14.288;2023-07-31T00:24:14;97136.72;;;15.04;87.30
77003;BME280;65939;50.060;14.288;2023-07-31T00:26:15;97127.22;;;15.03;87.29
77003;BME280;65939;50.060;14.288;2023-07-31T00:28:16;97135.13;;;15.03;87.37
77003;BME280;65939;50.060;14.288;2023-07-31T00:30:17;97134.47;;;15.01;87.63
77003;BME280;65939;50.060;14.288;2023-07-31T00:32:17;97140.13;;;14.98;88.08
77003;BME280;65939;50.060;14.288;2023-07-31T00:34:18;97138.84;;;14.94;87.78
77003;BME280;65939;50.060;14.288;2023-07-31T00:36:19;97130.53;;;14.90;87.98
77003;BME280;65939;50.060;14.288;2023-07-31T00:38:19;97132.72;;;14.87;88.12
77003;BME280;65939;50.060;14.288;2023-07-31T00:40:20;97131.47;;;14.82;88.42
77003;BME280;65939;50.060;14.288;2023-07-31T00:42:21;97129.19;;;14.79;88.55
77003;BME280;65939;50.060;14.288;2023-07-31T00:44:21;97136.47;;;14.77;89.14
77003;BME280;65939;50.060;14.288;2023-07-31T00:46:22;97136.84;;;14.74;88.82
77003;BME280;65939;50.060;14.288;2023-07-31T00:48:23;97134.59;;;14.71;89.60
77003;BME280;65939;50.060;14.288;2023-07-31T00:50:24;97132.16;;;14.70;89.60
77003;BME280;65939;50.060;14.288;2023-07-31T00:52:25;97127.06;;;14.68;89.81
77003;BME280;65939;50.060;14.288;2023-07-31T00:54:26;97130.69;;;14.67;89.98
77003;BME280;65939;50.060;14.288;2023-07-31T00:56:27;97132.69;;;14.65;90.28
77003;BME280;65939;50.060;14.288;2023-07-31T00:58:29;97133.69;;;14.64;90.35
77003;BME280;65939;50.060;14.288;2023-07-31T01:00:29;97125.16;;;14.62;90.20
77003;BME280;65939;50.060;14.288;2023-07-31T01:02:30;97130.41;;;14.62;90.54
77003;BME280;65939;50.060;14.288;2023-07-31T01:04:31;97126.19;;;14.61;90.02
77003;BME280;65939;50.060;14.288;2023-07-31T01:09:37;97128.19;;;14.59;89.83
77003;BME280;65939;50.060;14.288;2023-07-31T01:11:57;97128.19;;;14.59;90.25
77003;BME280;65939;50.060;14.288;2023-07-31T01:13:58;97113.41;;;14.58;89.62
77003;BME280;65939;50.060;14.288;2023-07-31T01:15:59;97123.09;;;14.57;89.80
77003;BME280;65939;50.060;14.288;2023-07-31T01:17:59;97121.47;;;14.56;90.38
77003;BME280;65939;50.060;14.288;2023-07-31T01:20:03;97110.16;;;14.56;89.90
77003;BME280;65939;50.060;14.288;2023-07-31T01:27:21;97117.41;;;14.54;89.43
77003;BME280;65939;50.060;14.288;2023-07-31T01:29:35;97108.50;;;14.55;89.20
77003;BME280;65939;50.060;14.288;2023-07-31T01:31:39;97109.34;;;14.55;89.52
77003;BME280;65939;50.060;14.288;2023-07-31T01:33:42;97108.34;;;14.56;88.90
77003;BME280;65939;50.060;14.288;2023-07-31T01:35:48;97099.47;;;14.57;88.46
77003;BME280;65939;50.060;14.288;2023-07-31T01:37:52;97106.53;;;14.57;88.54
77003;BME280;65939;50.060;14.288;2023-07-31T01:39:53;97104.72;;;14.57;88.20
77003;BME280;65939;50.060;14.288;2023-07-31T01:41:54;97101.28;;;14.57;87.98
77003;BME280;65939;50.060;14.288;2023-07-31T01:43:55;97101.28;;;14.57;88.24
77003;BME280;65939;50.060;14.288;2023-07-31T01:45:55;97099.66;;;14.56;88.55
77003;BME280;65939;50.060;14.288;2023-07-31T01:47:56;97098.84;;;14.55;88.33
77003;BME280;65939;50.060;14.288;2023-07-31T01:49:57;97097.19;;;14.54;88.39
77003;BME280;65939;50.060;14.288;2023-07-31T01:51:57;97097.84;;;14.56;88.09
77003;BME280;65939;50.060;14.288;2023-07-31T01:53:58;97094.75;;;14.53;88.42
77003;BME280;65939;50.060;14.288;2023-07-31T01:55:58;97093.16;;;14.52;87.98
77003;BME280;65939;50.060;14.288;2023-07-31T01:57:59;97095.94;;;14.50;88.25
77003;BME280;65939;50.060;14.288;2023-07-31T02:00:00;97087.25;;;14.50;88.23
77003;BME280;65939;50.060;14.288;2023-07-31T02:02:00;97081.31;;;14.48;87.89
77003;BME280;65939;50.060;14.288;2023-07-31T02:04:01;97085.78;;;14.47;87.74
77003;BME280;65939;50.060;14.288;2023-07-31T02:06:02;97082.34;;;14.47;88.05
77003;BME280;65939;50.060;14.288;2023-07-31T02:08:03;97085.78;;;14.47;88.28
77003;BME280;65939;50.060;14.288;2023-07-31T02:10:04;97080.72;;;14.46;87.71
77003;BME280;65939;50.060;14.288;2023-07-31T02:12:05;97081.72;;;14.45;87.99
77003;BME280;65939;50.060;14.288;2023-07-31T02:14:06;97091.38;;;14.44;88.18
77003;BME280;65939;50.060;14.288;2023-07-31T02:16:06;97089.59;;;14.45;88.19
77003;BME280;65939;50.060;14.288;2023-07-31T02:18:07;97091.38;;;14.44;88.09
77003;BME280;65939;50.060;14.288;2023-07-31T02:20:08;97087.78;;;14.45;88.07
77003;BME280;65939;50.060;14.288;2023-07-31T02:22:09;97083.34;;;14.46;88.50
77003;BME280;65939;50.060;14.288;2023-07-31T02:24:10;97084.16;;;14.46;88.12
77003;BME280;65939;50.060;14.288;2023-07-31T02:26:10;97076.25;;;14.46;88.13
77003;BME280;65939;50.060;14.288;2023-07-31T02:28:11;97081.53;;;14.46;87.91
77003;BME280;65939;50.060;14.288;2023-07-31T02:30:12;97076.25;;;14.46;87.91
77003;BME280;65939;50.060;14.288;2023-07-31T02:32:12;97076.25;;;14.46;88.20
77003;BME280;65939;50.060;14.288;2023-07-31T02:34:13;97078.91;;;14.46;87.84
77003;BME280;65939;50.060;14.288;2023-07-31T02:36:14;97084.97;;;14.47;88.00
77003;BME280;65939;50.060;14.288;2023-07-31T02:38:15;97079.53;;;14.48;87.86
77003;BME280;65939;50.060;14.288;2023-07-31T02:40:15;97082.97;;;14.49;87.59
77003;BME280;65939;50.060;14.288;2023-07-31T02:42:16;97085.59;;;14.49;87.54
77003;BME280;65939;50.060;14.288;2023-07-31T02:44:17;97083.13;;;14.47;87.88
77003;BME280;65939;50.060;14.288;2023-07-31T02:46:19;97078.91;;;14.46;87.65
77003;BME280;65939;50.060;14.288;2023-07-31T02:48:20;97077.06;;;14.47;87.59
77003;BME280;65939;50.060;14.288;2023-07-31T02:50:21;97072.84;;;14.46;88.23
77003;BME280;65939;50.060;14.288;2023-07-31T02:52:21;97074.66;;;14.45;87.98
77003;BME280;65939;50.060;14.288;2023-07-31T02:54:22;97071.22;;;14.45;88.36
77003;BME280;65939;50.060;14.288;2023-07-31T02:56:23;97076.47;;;14.45;88.32
77003;BME280;65939;50.060;14.288;2023-07-31T02:58:23;97078.25;;;14.44;88.06
77003;BME280;65939;50.060;14.288;2023-07-31T03:00:24;97080.06;;;14.44;88.21
77003;BME280;65939;50.060;14.288;2023-07-31T03:02:25;97079.25;;;14.43;88.28
77003;BME280;65939;50.060;14.288;2023-07-31T03:04:25;97078.44;;;14.43;88.01
77003;BME280;65939;50.060;14.288;2023-07-31T03:06:26;97083.06;;;14.41;88.13
77003;BME280;65939;50.060;14.288;2023-07-31T03:08:27;97085.69;;;14.41;88.22
77003;BME280;65939;50.060;14.288;2023-07-31T03:10:28;97080.44;;;14.41;88.04
77003;BME280;65939;50.060;14.288;2023-07-31T03:12:29;97084.72;;;14.42;87.64
77003;BME280;65939;50.060;14.288;2023-07-31T03:14:29;97085.16;;;14.45;88.00
77003;BME280;65939;50.060;14.288;2023-07-31T03:16:30;97076.06;;;14.48;87.76
77003;BME280;65939;50.060;14.288;2023-07-31T03:18:31;97083.78;;;14.49;87.71
77003;BME280;65939;50.060;14.288;2023-07-31T03:20:31;97079.00;;;14.53;87.48
77003;BME280;65939;50.060;14.288;2023-07-31T03:22:32;97073.38;;;14.56;87.44
77003;BME280;65939;50.060;14.288;2023-07-31T03:24:33;97080.25;;;14.57;86.92
77003;BME280;65939;50.060;14.288;2023-07-31T03:26:33;97079.44;;;14.56;86.78
77003;BME280;65939;50.060;14.288;2023-07-31T03:28:34;97076.00;;;14.56;87.06
77003;BME280;65939;50.060;14.288;2023-07-31T03:30:36;97071.72;;;14.55;87.34
77003;BME280;65939;50.060;14.288;2023-07-31T03:32:38;97068.28;;;14.54;86.93
77003;BME280;65939;50.060;14.288;2023-07-31T03:34:39;97071.94;;;14.53;87.15
77003;BME280;65939;50.060;14.288;2023-07-31T03:36:40;97062.59;;;14.51;86.97
77003;BME280;65939;50.060;14.288;2023-07-31T03:38:41;97070.66;;;14.49;87.37
77003;BME280;65939;50.060;14.288;2023-07-31T03:40:41;97079.72;;;14.47;87.31
77003;BME280;65939;50.060;14.288;2023-07-31T03:42:42;97077.28;;;14.45;86.65
77003;BME280;65939;50.060;14.288;2023-07-31T03:44:43;97076.47;;;14.45;87.48
77003;BME280;65939;50.060;14.288;2023-07-31T03:46:44;97086.34;;;14.43;87.54
77003;BME280;65939;50.060;14.288;2023-07-31T03:48:44;97088.31;;;14.41;87.94
77003;BME280;65939;50.060;14.288;2023-07-31T03:50:45;97079.47;;;14.42;87.58
77003;BME280;65939;50.060;14.288;2023-07-31T03:52:46;97087.34;;;14.42;87.52
77003;BME280;65939;50.060;14.288;2023-07-31T03:54:46;97082.91;;;14.42;87.58
77003;BME280;65939;50.060;14.288;2023-07-31T03:56:47;97079.25;;;14.43;87.65
77003;BME280;65939;50.060;14.288;2023-07-31T03:58:48;97079.09;;;14.45;88.07
77003;BME280;65939;50.060;14.288;2023-07-31T04:00:48;97084.97;;;14.47;88.04
77003;BME280;65939;50.060;14.288;2023-07-31T04:02:49;97073.44;;;14.48;87.61
77003;BME280;65939;50.060;14.288;2023-07-31T04:04:50;97078.38;;;14.51;87.60
77003;BME280;65939;50.060;14.288;2023-07-31T04:06:50;97072.75;;;14.54;87.93
77003;BME280;65939;50.060;14.288;2023-07-31T04:08:51;97065.31;;;14.57;87.54
77003;BME280;65939;50.060;14.288;2023-07-31T04:10:52;97062.94;;;14.63;87.48
77003;BME280;65939;50.060;14.288;2023-07-31T04:12:52;97065.00;;;14.67;87.91
77003;BME280;65939;50.060;14.288;2023-07-31T04:14:53;97066.25;;;14.71;87.46
77003;BME280;65939;50.060;14.288;2023-07-31T04:16:54;97065.50;;;14.77;87.55
77003;BME280;65939;50.060;14.288;2023-07-31T04:18:54;97065.75;;;14.82;86.98
77003;BME280;65939;50.060;14.288;2023-07-31T04:20:55;97066.19;;;14.86;87.07
77003;BME280;65939;50.060;14.288;2023-07-31T04:22:56;97062.38;;;14.89;87.12
77003;BME280;65939;50.060;14.288;2023-07-31T04:24:56;97059.81;;;14.95;86.52
77003;BME280;65939;50.060;14.288;2023-07-31T04:26:57;97066.53;;;14.98;86.68
77003;BME280;65939;50.060;14.288;2023-07-31T04:28:57;97061.50;;;15.03;86.19
77003;BME280;65939;50.060;14.288;2023-07-31T04:30:58;97061.13;;;15.06;86.07
77003;BME280;65939;50.060;14.288;2023-07-31T04:32:59;97059.72;;;15.10;85.94
77003;BME280;65939;50.060;14.288;2023-07-31T04:35:00;97064.63;;;15.13;85.38
77003;BME280;65939;50.060;14.288;2023-07-31T04:37:00;97067.84;;;15.15;85.54
77003;BME280;65939;50.060;14.288;2023-07-31T04:39:01;97054.34;;;15.18;85.26
77003;BME280;65939;50.060;14.288;2023-07-31T04:41:02;97060.84;;;15.22;84.62
77003;BME280;65939;50.060;14.288;2023-07-31T04:43:04;97061.09;;;15.27;84.16
77003;BME280;65939;50.060;14.288;2023-07-31T04:45:05;97053.63;;;15.31;84.63
77003;BME280;65939;50.060;14.288;2023-07-31T04:47:06;97066.03;;;15.37;84.42
77003;BME280;65939;50.060;14.288;2023-07-31T04:49:06;97055.72;;;15.42;83.75
77003;BME280;65939;50.060;14.288;2023-07-31T04:51:07;97050.91;;;15.46;83.82
77003;BME280;65939;50.060;14.288;2023-07-31T04:53:08;97047.69;;;15.50;83.24
77003;BME280;65939;50.060;14.288;2023-07-31T04:55:08;97047.13;;;15.55;83.08
77003;BME280;65939;50.060;14.288;2023-07-31T04:57:09;97062.31;;;15.60;83.37
77003;BME280;65939;50.060;14.288;2023-07-31T04:59:10;97057.66;;;15.62;82.62
77003;BME280;65939;50.060;14.288;2023-07-31T05:01:10;97062.53;;;15.65;83.06
77003;BME280;65939;50.060;14.288;2023-07-31T05:03:11;97056.13;;;15.67;82.91
77003;BME280;65939;50.060;14.288;2023-07-31T05:05:12;97067.06;;;15.71;82.36
77003;BME280;65939;50.060;14.288;2023-07-31T05:07:12;97063.84;;;15.75;82.78
77003;BME280;65939;50.060;14.288;2023-07-31T05:09:13;97058.22;;;15.78;82.95
77003;BME280;65939;50.060;14.288;2023-07-31T05:11:13;97062.69;;;15.85;82.67
77003;BME280;65939;50.060;14.288;2023-07-31T05:13:14;97065.56;;;15.90;82.25
77003;BME280;65939;50.060;14.288;2023-07-31T05:15:15;97064.78;;;15.96;81.03
77003;BME280;65939;50.060;14.288;2023-07-31T05:17:15;97065.22;;;15.99;81.19
77003;BME280;65939;50.060;14.288;2023-07-31T05:19:16;97066.44;;;16.03;81.79
77003;BME280;65939;50.060;14.288;2023-07-31T05:21:17;97068.69;;;16.07;81.58
77003;BME280;65939;50.060;14.288;2023-07-31T05:23:17;97061.19;;;16.10;80.75
77003;BME280;65939;50.060;14.288;2023-07-31T05:25:18;97055.34;;;16.15;81.64
77003;BME280;65939;50.060;14.288;2023-07-31T05:27:19;97052.31;;;16.18;80.82
77003;BME280;65939;50.060;14.288;2023-07-31T05:29:19;97066.53;;;16.23;80.76
77003;BME280;65939;50.060;14.288;2023-07-31T05:31:20;97061.47;;;16.28;81.12
77003;BME280;65939;50.060;14.288;2023-07-31T05:33:22;97053.59;;;16.35;81.03
77003;BME280;65939;50.060;14.288;2023-07-31T05:35:23;97058.91;;;16.42;80.80
77003;BME280;65939;50.060;14.288;2023-07-31T05:37:24;97057.09;;;16.49;80.85
77003;BME280;65939;50.060;14.288;2023-07-31T05:39:24;97051.44;;;16.59;81.25
77003;BME280;65939;50.060;14.288;2023-07-31T05:41:25;97055.50;;;16.68;80.63
77003;BME280;65939;50.060;14.288;2023-07-31T05:43:26;97049.28;;;16.75;80.40
77003;BME280;65939;50.060;14.288;2023-07-31T05:45:26;97060.66;;;16.83;79.43
77003;BME280;65939;50.060;14.288;2023-07-31T05:47:27;97055.38;;;16.89;79.45
77003;BME280;65939;50.060;14.288;2023-07-31T05:49:27;97058.63;;;16.98;79.57
77003;BME280;65939;50.060;14.288;2023-07-31T05:51:28;97064.31;;;17.08;79.12
77003;BME280;65939;50.060;14.288;2023-07-31T05:53:29;97064.94;;;17.17;78.74
77003;BME280;65939;50.060;14.288;2023-07-31T05:55:29;97060.28;;;17.26;79.20
77003;BME280;65939;50.060;14.288;2023-07-31T05:57:30;97052.72;;;17.36;78.88
77003;BME280;65939;50.060;14.288;2023-07-31T05:59:31;97050.50;;;17.46;78.33
77003;BME280;65939;50.060;14.288;2023-07-31T06:01:33;97048.25;;;17.56;78.43
77003;BME280;65939;50.060;14.288;2023-07-31T06:03:34;97051.69;;;17.63;77.91
77003;BME280;65939;50.060;14.288;2023-07-31T06:05:34;97047.81;;;17.73;77.70
77003;BME280;65939;50.060;14.288;2023-07-31T06:07:35;97048.25;;;17.83;77.15
77003;BME280;65939;50.060;14.288;2023-07-31T06:09:36;97042.50;;;17.92;76.70
77003;BME280;65939;50.060;14.288;2023-07-31T06:11:37;97045.31;;;18.04;77.28
77003;BME280;65939;50.060;14.288;2023-07-31T06:13:37;97040.19;;;18.16;76.72
77003;BME280;65939;50.060;14.288;2023-07-31T06:15:38;97038.50;;;18.28;76.34
77003;BME280;65939;50.060;14.288;2023-07-31T06:17:38;97039.09;;;18.37;75.97
77003;BME280;65939;50.060;14.288;2023-07-31T06:19:39;97038.41;;;18.48;76.35
77003;BME280;65939;50.060;14.288;2023-07-31T06:21:40;97036.94;;;18.59;75.78
77003;BME280;65939;50.060;14.288;2023-07-31T06:23:43;97034.41;;;18.71;76.11
77003;BME280;65939;50.060;14.288;2023-07-31T06:25:43;97031.31;;;18.80;75.64
77003;BME280;65939;50.060;14.288;2023-07-31T06:27:44;97025.81;;;18.82;75.66
77003;BME280;65939;50.060;14.288;2023-07-31T06:29:44;97030.09;;;18.83;75.09
77003;BME280;65939;50.060;14.288;2023-07-31T06:31:45;97034.59;;;18.82;74.40
77003;BME280;65939;50.060;14.288;2023-07-31T06:33:46;97032.56;;;18.78;74.25
77003;BME280;65939;50.060;14.288;2023-07-31T06:35:46;97031.00;;;18.63;73.55
77003;BME280;65939;50.060;14.288;2023-07-31T06:37:47;97023.31;;;18.55;73.95
77003;BME280;65939;50.060;14.288;2023-07-31T06:39:48;97027.84;;;18.48;74.10
77003;BME280;65939;50.060;14.288;2023-07-31T06:41:48;97029.28;;;18.44;73.75
77003;BME280;65939;50.060;14.288;2023-07-31T06:43:49;97024.66;;;18.39;73.81
77003;BME280;65939;50.060;14.288;2023-07-31T06:45:50;97019.38;;;18.33;73.37
77003;BME280;65939;50.060;14.288;2023-07-31T06:47:51;97029.16;;;18.32;74.17
77003;BME280;65939;50.060;14.288;2023-07-31T06:49:52;97040.13;;;18.36;74.31
77003;BME280;65939;50.060;14.288;2023-07-31T06:51:52;97034.38;;;18.39;73.95
77003;BME280;65939;50.060;14.288;2023-07-31T06:53:53;97047.78;;;18.44;74.07
77003;BME280;65939;50.060;14.288;2023-07-31T06:55:54;97035.78;;;18.48;73.67
77003;BME280;65939;50.060;14.288;2023-07-31T06:57:55;97040.78;;;18.56;73.98
77003;BME280;65939;50.060;14.288;2023-07-31T06:59:56;97030.78;;;18.65;74.42
77003;BME280;65939;50.060;14.288;2023-07-31T07:01:57;97044.41;;;18.75;74.09
77003;BME280;65939;50.060;14.288;2023-07-31T07:03:57;97038.63;;;18.85;74.29
77003;BME280;65939;50.060;14.288;2023-07-31T07:05:58;97048.53;;;18.96;73.69
77003;BME280;65939;50.060;14.288;2023-07-31T07:07:59;97041.34;;;19.03;73.20
77003;BME280;65939;50.060;14.288;2023-07-31T07:09:59;97039.47;;;19.10;72.97
77003;BME280;65939;50.060;14.288;2023-07-31T07:12:00;97039.00;;;19.13;72.26
77003;BME280;65939;50.060;14.288;2023-07-31T07:14:01;97024.16;;;19.12;72.22
77003;BME280;65939;50.060;14.288;2023-07-31T07:16:01;97029.47;;;19.12;72.06
77003;BME280;65939;50.060;14.288;2023-07-31T07:18:02;97027.41;;;19.14;72.40
77003;BME280;65939;50.060;14.288;2023-07-31T07:20:04;97024.72;;;19.21;72.75
77003;BME280;65939;50.060;14.288;2023-07-31T07:22:05;97029.78;;;19.23;72.69
77003;BME280;65939;50.060;14.288;2023-07-31T07:24:06;97028.94;;;19.29;72.15
77003;BME280;65939;50.060;14.288;2023-07-31T07:26:06;97026.84;;;19.31;71.35
77003;BME280;65939;50.060;14.288;2023-07-31T07:28:07;97032.75;;;19.33;71.42
77003;BME280;65939;50.060;14.288;2023-07-31T07:30:08;97025.25;;;19.30;71.67
77003;BME280;65939;50.060;14.288;2023-07-31T07:32:09;97029.13;;;19.27;71.33
77003;BME280;65939;50.060;14.288;2023-07-31T07:34:09;97028.53;;;19.25;71.61
77003;BME280;65939;50.060;14.288;2023-07-31T07:36:10;97028.31;;;19.27;72.34
77003;BME280;65939;50.060;14.288;2023-07-31T07:38:14;97039.72;;;19.27;71.22
77003;BME280;65939;50.060;14.288;2023-07-31T07:40:15;97034.22;;;19.29;71.48
77003;BME280;65939;50.060;14.288;2023-07-31T07:42:16;97031.78;;;19.27;71.57
77003;BME280;65939;50.060;14.288;2023-07-31T07:44:17;97037.06;;;19.27;71.89
77003;BME280;65939;50.060;14.288;2023-07-31T07:46:18;97039.56;;;19.22;71.75
77003;BME280;65939;50.060;14.288;2023-07-31T07:48:18;97042.03;;;19.17;71.27
77003;BME280;65939;50.060;14.288;2023-07-31T07:50:19;97036.81;;;19.10;72.07
77003;BME280;65939;50.060;14.288;2023-07-31T07:52:20;97043.72;;;19.11;71.77
77003;BME280;65939;50.060;14.288;2023-07-31T07:54:20;97044.31;;;19.13;72.17
77003;BME280;65939;50.060;14.288;2023-07-31T07:56:21;97046.41;;;19.05;71.06
77003;BME280;65939;50.060;14.288;2023-07-31T07:58:22;97045.88;;;18.96;71.50
77003;BME280;65939;50.060;14.288;2023-07-31T08:00:23;97041.81;;;18.94;72.18
77003;BME280;65939;50.060;14.288;2023-07-31T08:02:24;97047.53;;;18.90;72.45
77003;BME280;65939;50.060;14.288;2023-07-31T08:04:25;97037.75;;;18.91;72.34
77003;BME280;65939;50.060;14.288;2023-07-31T08:06:25;97040.41;;;18.91;72.40
77003;BME280;65939;50.060;14.288;2023-07-31T08:08:27;97037.81;;;18.84;71.98
77003;BME280;65939;50.060;14.288;2023-07-31T08:10:28;97042.13;;;18.79;72.70
77003;BME280;65939;50.060;14.288;2023-07-31T08:12:29;97042.56;;;18.76;72.21
77003;BME280;65939;50.060;14.288;2023-07-31T08:14:31;97051.31;;;18.76;72.57
77003;BME280;65939;50.060;14.288;2023-07-31T08:16:32;97048.66;;;18.76;73.06
77003;BME280;65939;50.060;14.288;2023-07-31T08:18:32;97047.44;;;18.79;73.07
77003;BME280;65939;50.060;14.288;2023-07-31T08:20:33;97052.50;;;18.80;73.27
77003;BME280;65939;50.060;14.288;2023-07-31T08:22:34;97056.56;;;18.83;73.36
77003;BME280;65939;50.060;14.288;2023-07-31T08:24:35;97055.31;;;18.85;73.43
77003;BME280;65939;50.060;14.288;2023-07-31T08:26:35;97055.72;;;18.89;73.77
77003;BME280;65939;50.060;14.288;2023-07-31T08:28:36;97056.50;;;18.89;73.21
77003;BME280;65939;50.060;14.288;2023-07-31T08:30:37;97054.88;;;18.88;73.21
77003;BME280;65939;50.060;14.288;2023-07-31T08:32:37;97057.91;;;18.92;73.73
77003;BME280;65939;50.060;14.288;2023-07-31T08:34:38;97062.56;;;18.97;73.47
77003;BME280;65939;50.060;14.288;2023-07-31T08:36:39;97060.06;;;19.02;73.37
77003;BME280;65939;50.060;14.288;2023-07-31T08:38:41;97065.56;;;19.07;73.80
77003;BME280;65939;50.060;14.288;2023-07-31T08:40:41;97064.66;;;19.13;73.09
77003;BME280;65939;50.060;14.288;2023-07-31T08:42:52;97060.38;;;19.19;72.89
77003;BME280;65939;50.060;14.288;2023-07-31T08:44:55;97061.53;;;19.23;72.83
77003;BME280;65939;50.060;14.288;2023-07-31T08:46:56;97056.63;;;19.26;73.32
77003;BME280;65939;50.060;14.288;2023-07-31T08:48:58;97054.38;;;19.30;72.86
77003;BME280;65939;50.060;14.288;2023-07-31T08:51:00;97055.53;;;19.34;72.12
77003;BME280;65939;50.060;14.288;2023-07-31T08:53:00;97059.00;;;19.34;71.65
77003;BME280;65939;50.060;14.288;2023-07-31T08:55:01;97055.13;;;19.37;72.24
77003;BME280;65939;50.060;14.288;2023-07-31T08:57:05;97049.59;;;19.38;71.93
77003;BME280;65939;50.060;14.288;2023-07-31T08:59:08;97056.16;;;19.36;71.76
77003;BME280;65939;50.060;14.288;2023-07-31T09:01:10;97054.06;;;19.38;72.68
77003;BME280;65939;50.060;14.288;2023-07-31T09:03:16;97047.31;;;19.42;73.00
77003;BME280;65939;50.060;14.288;2023-07-31T09:05:18;97044.97;;;19.52;72.73
77003;BME280;65939;50.060;14.288;2023-07-31T09:07:21;97047.38;;;19.60;72.23
77003;BME280;65939;50.060;14.288;2023-07-31T09:09:22;97038.13;;;19.70;72.71
77003;BME280;65939;50.060;14.288;2023-07-31T09:11:24;97046.59;;;19.78;72.05
77003;BME280;65939;50.060;14.288;2023-07-31T09:13:27;97038.13;;;19.88;72.72
77003;BME280;65939;50.060;14.288;2023-07-31T09:15:28;97043.72;;;19.98;72.49
77003;BME280;65939;50.060;14.288;2023-07-31T09:17:30;97043.13;;;20.15;72.05
77003;BME280;65939;50.060;14.288;2023-07-31T09:19:35;97042.88;;;20.34;72.17
77003;BME280;65939;50.060;14.288;2023-07-31T09:21:49;97042.13;;;20.64;72.84
77003;BME280;65939;50.060;14.288;2023-07-31T09:23:50;97047.03;;;20.91;72.38
77003;BME280;65939;50.060;14.288;2023-07-31T09:25:54;97043.53;;;21.20;71.49
77003;BME280;65939;50.060;14.288;2023-07-31T09:28:01;97041.84;;;21.49;70.60
77003;BME280;65939;50.060;14.288;2023-07-31T09:30:03;97040.28;;;21.77;70.62
77003;BME280;65939;50.060;14.288;2023-07-31T09:32:16;97032.97;;;22.08;70.51
77003;BME280;65939;50.060;14.288;2023-07-31T09:34:18;97041.47;;;22.33;69.66
77003;BME280;65939;50.060;14.288;2023-07-31T09:36:18;97034.34;;;22.51;68.50
77003;BME280;65939;50.060;14.288;2023-07-31T09:38:19;97033.13;;;22.70;68.71
77003;BME280;65939;50.060;14.288;2023-07-31T09:40:31;97028.06;;;22.85;68.04
77003;BME280;65939;50.060;14.288;2023-07-31T09:42:34;97030.94;;;22.96;68.29
77003;BME280;65939;50.060;14.288;2023-07-31T09:44:39;97023.34;;;23.04;67.19
77003;BME280;65939;50.060;14.288;2023-07-31T09:46:41;97019.56;;;23.17;66.79
77003;BME280;65939;50.060;14.288;2023-07-31T09:48:42;97016.25;;;23.27;66.10
77003;BME280;65939;50.060;14.288;2023-07-31T09:50:45;97008.00;;;23.28;65.16
77003;BME280;65939;50.060;14.288;2023-07-31T09:52:46;97012.06;;;23.31;64.75
77003;BME280;65939;50.060;14.288;2023-07-31T09:54:47;97010.50;;;23.35;63.45
77003;BME280;65939;50.060;14.288;2023-07-31T09:56:48;97006.88;;;23.24;63.76
77003;BME280;65939;50.060;14.288;2023-07-31T09:58:50;96987.50;;;23.29;64.18
77003;BME280;65939;50.060;14.288;2023-07-31T10:00:51;96985.13;;;23.49;65.48
77003;BME280;65939;50.060;14.288;2023-07-31T10:02:52;96990.50;;;23.71;65.77
77003;BME280;65939;50.060;14.288;2023-07-31T10:04:57;96976.38;;;23.93;64.10
77003;BME280;65939;50.060;14.288;2023-07-31T10:07:02;96975.63;;;24.19;64.56
77003;BME280;65939;50.060;14.288;2023-07-31T10:09:09;96974.84;;;24.46;63.96
77003;BME280;65939;50.060;14.288;2023-07-31T10:11:13;96967.25;;;24.59;62.58
77003;BME280;65939;50.060;14.288;2023-07-31T10:13:15;96966.81;;;24.41;61.56
77003;BME280;65939;50.060;14.288;2023-07-31T10:15:17;96960.84;;;24.33;61.88
77003;BME280;65939;50.060;14.288;2023-07-31T10:17:19;96953.38;;;24.35;62.07
77003;BME280;65939;50.060;14.288;2023-07-31T10:19:21;96954.59;;;24.50;62.83
77003;BME280;65939;50.060;14.288;2023-07-31T10:21:22;96951.25;;;24.65;62.82
77003;BME280;65939;50.060;14.288;2023-07-31T10:23:24;96954.00;;;24.70;60.66
77003;BME280;65939;50.060;14.288;2023-07-31T10:25:29;96945.72;;;24.71;60.48
77003;BME280;65939;50.060;14.288;2023-07-31T10:27:30;96946.81;;;24.75;60.75
77003;BME280;65939;50.060;14.288;2023-07-31T10:29:31;96958.09;;;24.82;61.57
77003;BME280;65939;50.060;14.288;2023-07-31T10:31:34;96954.41;;;24.89;60.67
77003;BME280;65939;50.060;14.288;2023-07-31T10:33:35;96941.91;;;24.94;60.68
77003;BME280;65939;50.060;14.288;2023-07-31T10:35:36;96944.91;;;25.03;60.15
77003;BME280;65939;50.060;14.288;2023-07-31T10:37:41;96952.50;;;25.16;60.72
77003;BME280;65939;50.060;14.288;2023-07-31T10:39:43;96947.75;;;25.23;59.84
77003;BME280;65939;50.060;14.288;2023-07-31T10:41:43;96945.03;;;25.18;58.68